KLOZ Airport (London-Corbin Arpt-Magee Field) Information

FAA: LOZ - ICAO: KLOZ

KLOZ Airport Location

State Kentucky
County Laurel
City London
KLOZ Airport is 3 miles south of London, KY.
Latitude 37-05-12.8000N
Longitude 084-04-38.6000W
Elevation 1,212ft

KLOZ Airport METARs

METAR KLOZ 032153Z AUTO 25006KT 10SM CLR 20/05 A2998 RMK AO2 SLP149 T02000050
Altimeter 29.98"
Temperature 20.0°C (68.0°F)
Wind 250° at 6KT
Clouds Skies are clear.
Visibility 10.0mi
Time observed: 2021-12-03T21:53:00Z

KLOZ Airport Details

Status Operational
Activation October 1948
Ownership Public
Usage Public
Chart CINCINNATI
ATC on-site No
Beacon schedule sunset-sunrise
Beacon color clear green

KLOZ Airport Contacts

Owner CITIES OF LONDON & CORBIN
Owner address 566 HAL ROGERS DRIVE, LONDON, KY 40744
Owner phone 606-878-9100
Manager ERIC J. FRANKL, A.A.E.
Manager address 4000 TERMINAL DRIVE, SUITE 206, LEXINGTON, KY 40510
Manager phone 859-425-3100

KLOZ Airport (London-Corbin Arpt-Magee Field) Radio Frequencies

KLOZ (Airport) Radio Frequencies

UNICOM 123
Common traffic advisory frequency (CTAF) 123